WETTERDATEN

HEUTE
Time Temp. Taup. r.Fe. Windrich Windstärke Windböe Druck 1h Prec. 24h Prec.
00:06 2.2 2.2 100 260 1.4 3.1 1024.5 0.0000 0.0000
00:16 2.3 2.3 100 259 1.1 2.8 1024.4 0.0000 0.0000
00:26 2.3 2.3 100 254 1.1 2.5 1024.4 0.0000 0.0000
00:37 2.3 2.3 100 260 1.1 2.8 1024.2 0.0000 0.0000
00:47 2.3 2.3 100 270 0.8 2.2 1024.2 0.0000 0.0000
00:56 2.3 2.3 100 256 1.1 2.2 1024 0.0000 0.0000
01:06 2.3 2.3 100 258 0.8 2.2 1023.9 0.0000 0.0000
01:17 2.3 2.3 100 260 0.8 2.5 1023.7 0.0000 0.0000
01:27 2.3 2.3 100 259 1.1 2.8 1023.8 0.0000 0.0000
01:36 2.3 2.3 100 253 0.8 2.2 1023.7 0.0000 0.0000
01:47 2.3 2.3 100 246 1.1 3.1 1023.5 0.0000 0.0000
01:57 2.3 2.3 100 255 0.8 1.4 1023.1 0.0000 0.0000
02:07 2.3 2.3 100 238 0.8 2.2 1022.8 0.0000 0.0000
02:17 2.3 2.3 100 249 1.1 2.2 1022.7 0.0000 0.0000
02:27 2.3 2.3 100 284 1.1 3.6 1022.6 0.0000 0.0000
02:37 2.4 2.4 100 247 0.8 3.1 1022.4 0.0000 0.0000
02:47 2.4 2.4 100 259 1.4 3.9 1022.4 0.0000 0.0000
02:57 2.5 2.5 100 270 0.8 2.5 1022.3 0.0000 0.0000
03:07 2.5 2.5 100 270 1.1 2.8 1022.2 0.0000 0.0000
03:17 2.5 2.5 100 244 0.8 2.5 1022 0.0000 0.0000
03:27 2.5 2.5 100 237 1.1 3.1 1021.9 0.0000 0.0000
03:38 2.6 2.6 100 261 1.1 3.1 1021.7 0.0000 0.0000
03:47 2.6 2.6 100 242 1.4 2.5 1021.4 0.0000 0.0000
03:57 2.7 2.7 100 256 1.4 4.2 1021 0.0000 0.0000
04:08 2.8 2.8 100 248 2.2 5 1020.6 0.0000 0.0000
04:18 2.9 2.9 100 241 2.2 5 1020.4 0.0000 0.0000
04:27 3 3 100 249 2.5 5.8 1020.5 0.0000 0.0000
04:38 3.1 3.1 100 256 1.7 4.2 1020.2 0.0000 0.0000
04:48 3.2 3.2 100 270 1.7 4.4 1020.1 0.0000 0.0000
04:58 3.2 3.2 100 251 2.5 6.7 1020.2 0.0000 0.0000
05:07 3.2 3.2 100 257 1.4 5.3 1020.2 0.0000 0.0000
05:18 3.2 3.2 100 258 1.4 5 1020 0.0000 0.0000
05:28 3.2 3.2 100 255 1.4 3.6 1020 0.0000 0.0000
05:38 3.1 3.1 100 257 1.7 3.9 1019.9 0.0000 0.0000
05:48 3 3 100 270 1.4 2.8 1019.7 0.0000 0.0000
05:58 3 3 100 252 1.4 3.9 1019.5 0.0000 0.0000
06:08 3 3 100 261 1.4 4.4 1019.5 0.0000 0.0000
06:18 3 3 100 254 1.4 2.8 1019.5 0.0000 0.0000
06:29 3 3 100 262 1.4 3.9 1019.3 0.0000 0.0000
06:38 3 3 100 259 1.1 4.2 1018.8 0.0000 0.0000
06:48 2.9 2.9 100 245 1.1 3.9 1018.6 0.0000 0.0000
06:59 3 3 100 256 1.7 5.6 1018.6 0.0000 0.0000
07:09 3 3 100 257 1.4 3.1 1018.7 0.0000 0.0000
07:18 3 3 100 257 1.7 6.7 1018.6 0.0000 0.0000
07:28 3 3 100 262 1.1 3.1 1018.4 0.0000 0.0000
07:39 3 3 100 257 1.7 4.4 1018.2 0.0000 0.0000
07:49 2.9 2.9 100 248 1.1 2.8 1018.1 0.0000 0.0000
07:58 2.9 2.9 100 263 1.4 5 1018.1 0.0000 0.0000
08:09 2.8 2.8 100 253 1.4 5.6 1018 0.0000 0.0000
08:19 2.8 2.8 100 255 1.4 3.9 1018 0.0000 0.0000
08:29 2.8 2.8 100 250 1.4 3.6 1017.7 0.0000 0.0000
08:39 2.7 2.7 100 254 1.4 3.6 1017.6 0.0000 0.0000
08:49 2.7 2.7 100 254 1.4 3.6 1017.6 0.0000 0.0000
08:59 2.7 2.7 100 261 1.7 3.9 1017.6 0.0000 0.0000
09:09 2.7 2.7 100 254 2.2 5 1017.5 0.0000 0.0000
09:19 2.7 2.7 100 248 1.1 3.6 1017.3 0.0000 0.0000
09:29 2.7 2.7 100 258 1.1 2.8 1017.1 0.0000 0.0000
09:39 2.7 2.7 100 255 1.4 3.9 1017.1 0.0000 0.0000
09:49 2.8 2.8 100 246 2.2 6.7 1017.1 0.0000 0.0000
10:00 2.8 2.8 100 270 1.4 4.2 1016.9 0.0000 0.0000
10:09 2.9 2.9 100 264 1.7 3.9 1016.9 0.0000 0.0000
10:19 2.9 2.9 100 242 1.4 4.4 1016.9 0.0000 0.0000
10:30 3 3 100 253 1.7 5.3 1016.7 0.0000 0.0000
10:40 3.1 3.1 100 259 1.4 5.3 1016.6 0.0000 0.0000
10:50 3.1 3.1 100 257 1.7 4.4 1016.6 0.0000 0.0000
10:59 3.2 3.2 100 270 1.4 3.9 1016.6 0.0000 0.0000
11:10 3.3 3.3 100 257 1.7 3.9 1016.5 0.0000 0.0000
11:20 3.3 3.3 100 243 1.4 5.3 1016.3 0.0000 0.0000
11:30 3.4 3.4 100 254 1.7 5.6 1016.3 0.0000 0.0000
11:40 3.5 3.5 100 264 1.4 3.9 1016.2 0.0000 0.0000
11:50 3.5 3.5 100 256 1.4 4.2 1016.1 0.0000 0.0000
12:00 3.7 3.7 100 241 1.7 3.9 1016.1 0.0000 0.0000
12:10 3.6 3.6 100 264 2.2 4.4 1016.1 0.1240 0.1000
12:19 3.5 3.5 100 253 2.5 8.3 1015.9 0.1240 0.1000
12:28 3.4 3.4 100 230 3.1 5.6 1016 0.1240 0.1000
12:39 3.4 3.4 100 232 2.8 6.4 1015.8 0.1240 0.1000
12:49 3.3 3.3 100 230 3.1 5.3 1015.7 0.2480 0.2000
12:59 3.2 3.2 100 226 2.8 6.7 1015.6 0.2480 0.2000
13:08 3.2 3.2 100 230 2.8 4.4 1015.6 0.1240 0.2000
13:19 3.3 3.3 100 231 2.5 5 1015.5 0.1240 0.2000
13:29 3.3 3.3 100 225 2.2 5.6 1015.4 0.1240 0.2000
13:39 3.4 3.4 100 225 2.5 4.2 1015.2 0.1240 0.2000
13:49 3.5 3.5 100 225 2.8 6.4 1015 0.0000 0.2000
13:59 3.8 3.8 100 223 2.2 4.2 1014.7 0.0000 0.2000
14:09 4 4 100 234 3.6 7.2 1014.5 0.0000 0.2000
14:19 4.4 4.4 100 238 3.6 7.2 1014.3 0.0000 0.2000
14:30 4.8 4.8 100 244 3.9 12.2 1014.1 0.1240 0.4000
14:40 5 5 100 249 3.1 6.9 1014.1 0.1240 0.4000
14:50 5.2 5.2 100 259 3.6 6.9 1013.9 0.1240 0.4000
15:00 5.3 5.3 100 270 2.2 6.7 1013.9 0.1240 0.4000
15:10 5.5 5.5 100 266 2.5 4.4 1013.8 0.1240 0.4000
15:20 5.6 5.6 100 259 3.1 6.7 1013.8 0.1240 0.4000
15:30 5.7 5.7 100 259 2.5 6.4 1013.9 0.0000 0.4000
15:40 5.7 5.7 100 257 2.5 7.2 1013.8 0.0000 0.4000
15:50 5.8 5.8 100 259 2.8 6.9 1013.9 0.0000 0.4000
16:00 5.7 5.7 100 252 2.8 6.9 1013.6 0.0000 0.4000
16:10 5.7 5.7 100 255 2.5 5.3 1013.6 0.0000 0.4000
16:21 5.7 5.7 100 259 2.2 6.7 1013.5 0.0000 0.4000
16:30 5.8 5.8 100 256 2.5 6.9 1013.6 0.0000 0.4000
16:40 5.8 5.8 100 264 2.5 5 1013.7 0.0000 0.4000
16:51 5.9 5.9 100 261 2.2 5 1013.6 0.0000 0.4000
17:01 5.9 5.9 100 254 2.2 4.4 1013.6 0.0000 0.4000
17:07 5.8 5.8 100 260 2.2 8.1 1013.6 0.3730 0.7000
17:17 5.7 5.7 100 270 1.7 3.9 1013.6 0.3730 0.7000
17:27 5.8 5.8 100 258 2.8 5.6 1013.7 0.3730 0.7000
17:38 5.8 5.8 100 270 2.2 4.4 1013.7 0.4970 0.9000
17:48 5.8 5.8 100 261 2.5 5.8 1013.8 0.4970 0.9000
17:57 5.8 5.8 100 257 1.7 7.2 1013.7 0.4970 0.9000
18:08 5.8 5.8 100 256 1.7 4.4 1013.5 0.1240 0.9000
18:18 5.8 5.8 100 257 2.2 4.4 1013.4 0.1240 0.9000
18:24 5.8 5.8 100 256 2.5 8.6 1013.3 0.1240 0.9000
18:33 5.8 5.8 100 258 2.5 5.6 1013.3 0.0000 0.9000
18:43 5.8 5.8 100 253 2.5 5.8 1013.3 0.0000 0.9000
18:54 5.7 5.7 100 254 1.7 4.4 1013.2 0.0000 0.9000
19:04 5.7 5.7 100 259 1.4 3.9 1013.2 0.0000 0.9000

TAGESSTATISTIK

2022-01-27
TEMPERATUR
MITTEL
3.6
MAXIMUM
5.9
16:51
MINIMUM
2.2
00:06
LUFTDRUCK
MITTEL
1017.7
MAXIMUM
1024.5
00:06
MINIMUM
1013.2
18:54
TAUPUNKT
MITTEL
3.6
MAXIMUM
5.9
16:51
MINIMUM
2.2
00:06
FEUCHTIGKEIT
MITTEL
100
MAXIMUM
100
00:06
MINIMUM
100
00:06
WINDSTÄRKE
MITTEL
1.8
MAXIMUM
3.9
14:30
WINDBÖE
MITTEL
4.6
MAXIMUM
12.2
14:30
WINDRICHTUNG
VORHERRSCHENDE
W
78.3%
N
0.0
NO
0.0
O
0.0
SO
0.0
S
0.0
SW
21.7
W
78.3
NW
0.0
NIEDERSCHLAG
REGEN STUNDE
0.5
REGEN TAG
0.9
TEMPERATUR (°C)
MINIMUM
2.2
MAXIMUM
5.9
MITTEL
3.6
LUFTDRUCK (hpa)
MINIMUM
1013.2
MAXIMUM
1024.5
MITTEL
1017.7
MESSGERÄT